Temp: 11.4°C   Baro: 993.0mb
  Wind: 6.0mph   Dir: SE (146°)
  Rain: 1.0mm (2.4mm/hr)
  Solar: 0W/m2  Hum: 76%
 
Bath Spa Weather Station Historical Data
Daily Summary for August 2, 2019 Units:  Both    English   Metric
Daily Weekly Monthly Yearly Custom
  High: Low: Average:
Temperature: 57.8 °F /  14.3 °C 41.3 °F /  5.2 °C 48.7 °F /  9.3 °C
Dew Point: 45.7 °F /  7.6 °C 38.3 °F /  3.5 °C 42 °F /  5.6 °C
Humidity: 89.3% 58.4% 78%
Wind Speed: 7.9mph /  12.7km/h - 2.5mph /  4km/h
Wind Gust: 15mph /  24.1km/h - -
Wind- - WSW
Pressure: 30.19 in /  1022.2 hPa 29.83 in /  1010 hPa -
Precipitation: 0.00 in /  0 mm    
Historical Graphs
 
 
Tabular Data for August 2, 2019
Time Temperature Dew Point Pressure Wind Wind Speed Wind Gust Humidity Rainfall Rate (Hourly) solar
00:04 49.7 °F /  9.8 °C 45.7 °F /  7.6 °C 29.83in /  1010hPa North 4.8mph /  7.7km/h 10mph /  16.1km/h 85.8% 0.00in /  0mm 0 W/m2
00:09 49.6 °F /  9.8 °C 45.7 °F /  7.6 °C 29.83in /  1010hPa NNE 4.3mph /  6.9km/h 10mph /  16.1km/h 86% 0.00in /  0mm 0 W/m2
00:14 49.6 °F /  9.8 °C 45.7 °F /  7.6 °C 29.84in /  1010.4hPa North 4.2mph /  6.8km/h 10mph /  16.1km/h 86% 0.00in /  0mm 0 W/m2
00:19 49.6 °F /  9.8 °C 45.7 °F /  7.6 °C 29.84in /  1010.4hPa NNW 3.7mph /  6km/h 7mph /  11.3km/h 86% 0.00in /  0mm 0 W/m2
00:24 49.6 °F /  9.8 °C 45.7 °F /  7.6 °C 29.85in /  1010.7hPa NNE 2.8mph /  4.5km/h 8mph /  12.9km/h 86% 0.00in /  0mm 0 W/m2
00:29 49.6 °F /  9.8 °C 45.6 °F /  7.6 °C 29.85in /  1010.7hPa North 4.3mph /  6.9km/h 11mph /  17.7km/h 85.8% 0.00in /  0mm 0 W/m2
00:34 49.6 °F /  9.8 °C 45.4 °F /  7.4 °C 29.85in /  1010.7hPa North 3.3mph /  5.3km/h 8mph /  12.9km/h 85.4% 0.00in /  0mm 0 W/m2
00:39 49.5 °F /  9.7 °C 45.3 °F /  7.4 °C 29.86in /  1011.1hPa NNE 1.8mph /  2.9km/h 6mph /  9.7km/h 85.6% 0.00in /  0mm 0 W/m2
00:44 49.5 °F /  9.7 °C 45.5 °F /  7.5 °C 29.87in /  1011.4hPa NNE 1.4mph /  2.3km/h 4mph /  6.4km/h 86% 0.00in /  0mm 0 W/m2
00:49 49.2 °F /  9.6 °C 45.2 °F /  7.3 °C 29.87in /  1011.4hPa NNE 0.7mph /  1.1km/h 4mph /  6.4km/h 86% 0.00in /  0mm 0 W/m2
00:54 49.1 °F /  9.5 °C 45.1 °F /  7.3 °C 29.87in /  1011.4hPa North 1.6mph /  2.6km/h 6mph /  9.7km/h 86% 0.00in /  0mm 0 W/m2
00:59 48.9 °F /  9.4 °C 45 °F /  7.2 °C 29.88in /  1011.7hPa NNW 2mph /  3.2km/h 7mph /  11.3km/h 86% 0.00in /  0mm 0 W/m2
01:04 48.7 °F /  9.3 °C 44.8 °F /  7.1 °C 29.88in /  1011.7hPa NNW 2.2mph /  3.5km/h 7mph /  11.3km/h 86% 0.00in /  0mm 0 W/m2
01:09 48.6 °F /  9.2 °C 44.6 °F /  7 °C 29.88in /  1011.7hPa NNW 2.5mph /  4km/h 6mph /  9.7km/h 86% 0.00in /  0mm 0 W/m2
01:14 48.5 °F /  9.2 °C 44.5 °F /  6.9 °C 29.88in /  1011.7hPa NNW 2.3mph /  3.7km/h 7mph /  11.3km/h 86% 0.00in /  0mm 0 W/m2
01:19 48.2 °F /  9 °C 44.2 °F /  6.8 °C 29.89in /  1012.1hPa NNW 2.8mph /  4.5km/h 8mph /  12.9km/h 86% 0.00in /  0mm 0 W/m2
01:24 48.1 °F /  8.9 °C 44.2 °F /  6.8 °C 29.89in /  1012.1hPa NNW 1.9mph /  3.1km/h 4mph /  6.4km/h 86% 0.00in /  0mm 0 W/m2
01:29 48 °F /  8.9 °C 44.1 °F /  6.7 °C 29.89in /  1012.1hPa NNW 3.3mph /  5.3km/h 7mph /  11.3km/h 86% 0.00in /  0mm 0 W/m2
01:34 47.8 °F /  8.8 °C 43.9 °F /  6.6 °C 29.89in /  1012.1hPa NNW 2.8mph /  4.5km/h 7mph /  11.3km/h 86% 0.00in /  0mm 0 W/m2
01:39 47.7 °F /  8.7 °C 43.7 °F /  6.5 °C 29.89in /  1012.1hPa North 4.1mph /  6.6km/h 9mph /  14.5km/h 86% 0.00in /  0mm 0 W/m2
01:44 47.5 °F /  8.6 °C 43.5 °F /  6.4 °C 29.89in /  1012.1hPa NNE 5.7mph /  9.2km/h 10mph /  16.1km/h 86% 0.00in /  0mm 0 W/m2
01:49 47.3 °F /  8.5 °C 43.3 °F /  6.3 °C 29.90in /  1012.4hPa NNE 4.2mph /  6.8km/h 10mph /  16.1km/h 86% 0.00in /  0mm 0 W/m2
01:54 47.3 °F /  8.5 °C 43.3 °F /  6.3 °C 29.90in /  1012.4hPa NNE 5.1mph /  8.2km/h 12mph /  19.3km/h 86% 0.00in /  0mm 0 W/m2
01:59 47.2 °F /  8.4 °C 43.2 °F /  6.2 °C 29.90in /  1012.4hPa NNE 5.5mph /  8.9km/h 13mph /  20.9km/h 86% 0.00in /  0mm 0 W/m2
02:04 47 °F /  8.3 °C 43.1 °F /  6.2 °C 29.90in /  1012.4hPa North 4.8mph /  7.7km/h 12mph /  19.3km/h 86% 0.00in /  0mm 0 W/m2
02:09 46.9 °F /  8.3 °C 43 °F /  6.1 °C 29.90in /  1012.4hPa North 2.2mph /  3.5km/h 12mph /  19.3km/h 86% 0.00in /  0mm 0 W/m2
02:14 46.9 °F /  8.3 °C 43 °F /  6.1 °C 29.91in /  1012.8hPa North 3.2mph /  5.1km/h 9mph /  14.5km/h 86% 0.00in /  0mm 0 W/m2
02:19 46.8 °F /  8.2 °C 42.8 °F /  6 °C 29.91in /  1012.8hPa NW 2.7mph /  4.3km/h 7mph /  11.3km/h 86% 0.00in /  0mm 0 W/m2
02:24 46.8 °F /  8.2 °C 42.8 °F /  6 °C 29.91in /  1012.8hPa NW 3.1mph /  5km/h 8mph /  12.9km/h 86% 0.00in /  0mm 0 W/m2
02:29 46.8 °F /  8.2 °C 42.8 °F /  6 °C 29.91in /  1012.8hPa North 2.5mph /  4km/h 8mph /  12.9km/h 86% 0.00in /  0mm 0 W/m2
02:34 46.8 °F /  8.2 °C 42.7 °F /  5.9 °C 29.91in /  1012.8hPa North 2.5mph /  4km/h 6mph /  9.7km/h 85.8% 0.00in /  0mm 0 W/m2
02:39 46.8 °F /  8.2 °C 42.4 °F /  5.8 °C 29.91in /  1012.8hPa North 3.1mph /  5km/h 9mph /  14.5km/h 85% 0.00in /  0mm 0 W/m2
02:44 46.8 °F /  8.2 °C 42.4 °F /  5.8 °C 29.91in /  1012.8hPa North 3.5mph /  5.6km/h 9mph /  14.5km/h 85% 0.00in /  0mm 0 W/m2
02:49 46.8 °F /  8.2 °C 42.4 °F /  5.8 °C 29.91in /  1012.8hPa North 3.5mph /  5.6km/h 8mph /  12.9km/h 85% 0.00in /  0mm 0 W/m2
02:54 46.8 °F /  8.2 °C 42.4 °F /  5.8 °C 29.91in /  1012.8hPa North 2.3mph /  3.7km/h 8mph /  12.9km/h 85% 0.00in /  0mm 0 W/m2
02:59 46.8 °F /  8.2 °C 42.4 °F /  5.8 °C 29.91in /  1012.8hPa North 3.8mph /  6.1km/h 6mph /  9.7km/h 85% 0.00in /  0mm 0 W/m2
03:04 46.9 °F /  8.3 °C 42.6 °F /  5.9 °C 29.92in /  1013.1hPa North 4.6mph /  7.4km/h 8mph /  12.9km/h 85% 0.00in /  0mm 0 W/m2
03:09 46.9 °F /  8.3 °C 42.6 °F /  5.9 °C 29.92in /  1013.1hPa North 4.8mph /  7.7km/h 10mph /  16.1km/h 85% 0.00in /  0mm 0 W/m2
03:14 46.9 °F /  8.3 °C 42.6 °F /  5.9 °C 29.92in /  1013.1hPa North 5.8mph /  9.3km/h 11mph /  17.7km/h 85% 0.00in /  0mm 0 W/m2
03:19 47.1 °F /  8.4 °C 42.8 °F /  6 °C 29.93in /  1013.4hPa North 4.6mph /  7.4km/h 10mph /  16.1km/h 85% 0.00in /  0mm 0 W/m2
03:24 47.1 °F /  8.4 °C 42.8 °F /  6 °C 29.93in /  1013.4hPa North 5.7mph /  9.2km/h 10mph /  16.1km/h 85% 0.00in /  0mm 0 W/m2
03:29 47.2 °F /  8.4 °C 42.9 °F /  6.1 °C 29.93in /  1013.4hPa North 5.8mph /  9.3km/h 11mph /  17.7km/h 84.7% 0.00in /  0mm 0 W/m2
03:34 47.3 °F /  8.5 °C 42.8 °F /  6 °C 29.93in /  1013.4hPa North 4.6mph /  7.4km/h 9mph /  14.5km/h 84% 0.00in /  0mm 0 W/m2
03:39 47.3 °F /  8.5 °C 42.8 °F /  6 °C 29.93in /  1013.4hPa North 4.9mph /  7.9km/h 9mph /  14.5km/h 84% 0.00in /  0mm 0 W/m2
03:44 47.3 °F /  8.5 °C 42.8 °F /  6 °C 29.94in /  1013.8hPa NNE 3.5mph /  5.6km/h 8mph /  12.9km/h 84% 0.00in /  0mm 0 W/m2
03:49 47.3 °F /  8.5 °C 42.8 °F /  6 °C 29.94in /  1013.8hPa North 4.3mph /  6.9km/h 9mph /  14.5km/h 84% 0.00in /  0mm 0 W/m2
03:54 47.2 °F /  8.4 °C 42.7 °F /  5.9 °C 29.94in /  1013.8hPa North 2.2mph /  3.5km/h 9mph /  14.5km/h 83.8% 0.00in /  0mm 0 W/m2
03:59 47.1 °F /  8.4 °C 42.3 °F /  5.7 °C 29.94in /  1013.8hPa North 1.6mph /  2.6km/h 6mph /  9.7km/h 83% 0.00in /  0mm 0 W/m2
04:04 47.1 °F /  8.4 °C 42.3 °F /  5.7 °C 29.94in /  1013.8hPa North 1.8mph /  2.9km/h 4mph /  6.4km/h 83% 0.00in /  0mm 0 W/m2
04:09 47 °F /  8.3 °C 42.4 °F /  5.8 °C 29.95in /  1014.1hPa NW 2.6mph /  4.2km/h 6mph /  9.7km/h 83.8% 0.00in /  0mm 0 W/m2
04:14 46.9 °F /  8.3 °C 42.3 °F /  5.7 °C 29.95in /  1014.1hPa NNW 2.6mph /  4.2km/h 8mph /  12.9km/h 83.8% 0.00in /  0mm 0 W/m2
04:19 46.7 °F /  8.2 °C 41.8 °F /  5.4 °C 29.95in /  1014.1hPa North 2.4mph /  3.9km/h 8mph /  12.9km/h 83% 0.00in /  0mm 0 W/m2
04:24 46.4 °F /  8 °C 41.9 °F /  5.5 °C 29.95in /  1014.1hPa North 2.2mph /  3.5km/h 6mph /  9.7km/h 83.9% 0.00in /  0mm 0 W/m2
04:29 46.2 °F /  7.9 °C 41.7 °F /  5.4 °C 29.95in /  1014.1hPa North 2.9mph /  4.7km/h 7mph /  11.3km/h 84% 0.00in /  0mm 0 W/m2
04:34 46 °F /  7.8 °C 41.5 °F /  5.3 °C 29.95in /  1014.1hPa North 2.6mph /  4.2km/h 5mph /  8km/h 84% 0.00in /  0mm 0 W/m2
04:39 45.9 °F /  7.7 °C 41.4 °F /  5.2 °C 29.95in /  1014.1hPa North 2mph /  3.2km/h 6mph /  9.7km/h 84% 0.00in /  0mm 0 W/m2
04:44 45.5 °F /  7.5 °C 41.1 °F /  5.1 °C 29.95in /  1014.1hPa North 2mph /  3.2km/h 4mph /  6.4km/h 84.3% 0.00in /  0mm 0 W/m2
04:49 45.3 °F /  7.4 °C 40.9 °F /  4.9 °C 29.95in /  1014.1hPa North 4.6mph /  7.4km/h 7mph /  11.3km/h 84.6% 0.00in /  0mm 0 W/m2
04:54 45.3 °F /  7.4 °C 41 °F /  5 °C 29.96in /  1014.4hPa North 4.5mph /  7.2km/h 9mph /  14.5km/h 85% 0.00in /  0mm 0 W/m2
04:59 45.1 °F /  7.3 °C 40.8 °F /  4.9 °C 29.96in /  1014.4hPa North 2.8mph /  4.5km/h 9mph /  14.5km/h 85% 0.00in /  0mm 0 W/m2
05:04 45.1 °F /  7.3 °C 40.9 °F /  4.9 °C 29.96in /  1014.4hPa NNW 2.4mph /  3.9km/h 6mph /  9.7km/h 85.5% 0.00in /  0mm 0 W/m2
05:09 45 °F /  7.2 °C 41 °F /  5 °C 29.96in /  1014.4hPa NNW 2.8mph /  4.5km/h 6mph /  9.7km/h 86% 0.00in /  0mm 0 W/m2
05:14 44.7 °F /  7.1 °C 40.7 °F /  4.8 °C 29.96in /  1014.4hPa NNW 3.1mph /  5km/h 6mph /  9.7km/h 86% 0.00in /  0mm 0 W/m2
05:19 44.6 °F /  7 °C 40.6 °F /  4.8 °C 29.96in /  1014.4hPa NNW 2.3mph /  3.7km/h 6mph /  9.7km/h 86% 0.00in /  0mm 0 W/m2
05:24 44.4 °F /  6.9 °C 40.7 °F /  4.8 °C 29.96in /  1014.4hPa NNW 2.6mph /  4.2km/h 5mph /  8km/h 86.7% 0.00in /  0mm 0 W/m2
05:29 44.2 °F /  6.8 °C 40.6 °F /  4.8 °C 29.97in /  1014.8hPa NNW 2.6mph /  4.2km/h 6mph /  9.7km/h 87% 0.00in /  0mm 0 W/m2
05:34 44.2 °F /  6.8 °C 40.6 °F /  4.8 °C 29.97in /  1014.8hPa North 3.4mph /  5.5km/h 8mph /  12.9km/h 87% 0.00in /  0mm 0 W/m2
05:39 44.1 °F /  6.7 °C 40.5 °F /  4.7 °C 29.97in /  1014.8hPa NNW 3.8mph /  6.1km/h 8mph /  12.9km/h 87% 0.00in /  0mm 0 W/m2
05:44 44.1 °F /  6.7 °C 40.5 °F /  4.7 °C 29.97in /  1014.8hPa North 3.9mph /  6.3km/h 8mph /  12.9km/h 87% 0.00in /  0mm 0 W/m2
05:49 44.1 °F /  6.7 °C 40.5 °F /  4.7 °C 29.97in /  1014.8hPa North 6.3mph /  10.1km/h 11mph /  17.7km/h 87% 0.00in /  0mm 0 W/m2
05:54 44.1 °F /  6.7 °C 40.5 °F /  4.7 °C 29.97in /  1014.8hPa North 6.5mph /  10.5km/h 11mph /  17.7km/h 87% 0.00in /  0mm 0 W/m2
05:59 44.1 °F /  6.7 °C 40.5 °F /  4.7 °C 29.97in /  1014.8hPa North 7.3mph /  11.7km/h 12mph /  19.3km/h 87% 0.00in /  0mm 0 W/m2
06:04 44.1 °F /  6.7 °C 40.1 °F /  4.5 °C 29.97in /  1014.8hPa North 6.3mph /  10.1km/h 10mph /  16.1km/h 86.1% 0.00in /  0mm 0 W/m2
06:09 43.9 °F /  6.6 °C 39.9 °F /  4.4 °C 29.98in /  1015.1hPa North 6.4mph /  10.3km/h 11mph /  17.7km/h 86% 0.00in /  0mm 0 W/m2
06:14 43.7 °F /  6.5 °C 39.7 °F /  4.3 °C 29.98in /  1015.1hPa North 6.1mph /  9.8km/h 9mph /  14.5km/h 86% 0.00in /  0mm 0 W/m2
06:19 43.7 °F /  6.5 °C 39.7 °F /  4.3 °C 29.98in /  1015.1hPa North 5.4mph /  8.7km/h 8mph /  12.9km/h 86% 0.00in /  0mm 0 W/m2
06:24 43.7 °F /  6.5 °C 39.8 °F /  4.3 °C 29.98in /  1015.1hPa North 4.9mph /  7.9km/h 9mph /  14.5km/h 86.2% 0.00in /  0mm 0 W/m2
06:29 43.7 °F /  6.5 °C 40 °F /  4.4 °C 29.99in /  1015.5hPa North 4.6mph /  7.4km/h 9mph /  14.5km/h 86.8% 0.00in /  0mm 0 W/m2
06:34 43.6 °F /  6.4 °C 40 °F /  4.4 °C 29.99in /  1015.5hPa North 4.1mph /  6.6km/h 9mph /  14.5km/h 87% 0.00in /  0mm 0 W/m2
06:39 43.5 °F /  6.4 °C 39.9 °F /  4.4 °C 29.99in /  1015.5hPa North 2.3mph /  3.7km/h 6mph /  9.7km/h 87% 0.00in /  0mm 0 W/m2
06:44 43.4 °F /  6.3 °C 39.8 °F /  4.3 °C 30.00in /  1015.8hPa North 3.1mph /  5km/h 6mph /  9.7km/h 87% 0.00in /  0mm 0 W/m2
06:49 43.3 °F /  6.3 °C 39.7 °F /  4.3 °C 30.00in /  1015.8hPa North 2.4mph /  3.9km/h 7mph /  11.3km/h 87% 0.00in /  0mm 0 W/m2
06:54 43.3 °F /  6.3 °C 39.7 °F /  4.3 °C 30.01in /  1016.1hPa North 1.6mph /  2.6km/h 5mph /  8km/h 87% 0.00in /  0mm 0 W/m2
06:59 43.2 °F /  6.2 °C 39.6 °F /  4.2 °C 30.01in /  1016.1hPa North 1mph /  1.6km/h 5mph /  8km/h 87% 0.00in /  0mm 0 W/m2
07:04 43.2 °F /  6.2 °C 39.6 °F /  4.2 °C 30.01in /  1016.1hPa North 1.5mph /  2.4km/h 7mph /  11.3km/h 87% 0.00in /  0mm 0 W/m2
07:09 43.2 °F /  6.2 °C 39.6 °F /  4.2 °C 30.01in /  1016.1hPa North 0.5mph /  0.8km/h 4mph /  6.4km/h 87% 0.00in /  0mm 0 W/m2
07:14 43.1 °F /  6.2 °C 39.5 °F /  4.2 °C 30.02in /  1016.5hPa North 0.2mph /  0.3km/h 4mph /  6.4km/h 87% 0.00in /  0mm 5 W/m2
07:19 43.2 °F /  6.2 °C 39.6 °F /  4.2 °C 30.02in /  1016.5hPa North 0.4mph /  0.6km/h 2mph /  3.2km/h 87% 0.00in /  0mm 9 W/m2
07:24 43.1 °F /  6.2 °C 39.5 °F /  4.2 °C 30.02in /  1016.5hPa North 0.2mph /  0.3km/h 2mph /  3.2km/h 87% 0.00in /  0mm 11 W/m2
07:29 43 °F /  6.1 °C 39.5 °F /  4.2 °C 30.03in /  1016.8hPa Calm   1mph /  1.6km/h 87.3% 0.00in /  0mm 12 W/m2
07:34 43.1 °F /  6.2 °C 39.8 °F /  4.3 °C 30.03in /  1016.8hPa Calm   1mph /  1.6km/h 88% 0.00in /  0mm 16 W/m2
07:39 43.2 °F /  6.2 °C 39.9 °F /  4.4 °C 30.03in /  1016.8hPa Calm     88% 0.00in /  0mm 18 W/m2
07:44 43.3 °F /  6.3 °C 40.1 °F /  4.5 °C 30.04in /  1017.2hPa North 0.7mph /  1.1km/h 2mph /  3.2km/h 88% 0.00in /  0mm 19 W/m2
07:49 42.8 °F /  6 °C 39.6 °F /  4.2 °C 30.05in /  1017.5hPa North 0.5mph /  0.8km/h 3mph /  4.8km/h 88% 0.00in /  0mm 21 W/m2
07:54 42.4 °F /  5.8 °C 39.3 °F /  4.1 °C 30.05in /  1017.5hPa NNW 0.1mph /  0.2km/h 1mph /  1.6km/h 88.3% 0.00in /  0mm 23 W/m2
07:59 42.6 °F /  5.9 °C 39.6 °F /  4.2 °C 30.05in /  1017.5hPa NNW 1mph /  1.6km/h 3mph /  4.8km/h 89% 0.00in /  0mm 25 W/m2
08:04 42.8 °F /  6 °C 39.7 °F /  4.3 °C 30.05in /  1017.5hPa NNW 0.6mph /  1km/h 3mph /  4.8km/h 89% 0.00in /  0mm 26 W/m2
08:09 43.1 °F /  6.2 °C 40 °F /  4.4 °C 30.05in /  1017.5hPa NNW 0.2mph /  0.3km/h 3mph /  4.8km/h 89% 0.00in /  0mm 28 W/m2
08:14 43.3 °F /  6.3 °C 40.2 °F /  4.6 °C 30.06in /  1017.8hPa NNW 1.2mph /  1.9km/h 3mph /  4.8km/h 89% 0.00in /  0mm 30 W/m2
08:19 43.5 °F /  6.4 °C 40.5 °F /  4.7 °C 30.06in /  1017.8hPa West 2.7mph /  4.3km/h 6mph /  9.7km/h 89% 0.00in /  0mm 30 W/m2
08:24 43.7 °F /  6.5 °C 40.6 °F /  4.8 °C 30.06in /  1017.8hPa West 2.1mph /  3.4km/h 5mph /  8km/h 89% 0.00in /  0mm 32 W/m2
08:29 43.8 °F /  6.6 °C 40.7 °F /  4.8 °C 30.06in /  1017.8hPa West 1.8mph /  2.9km/h 4mph /  6.4km/h 89% 0.00in /  0mm 35 W/m2
08:34 43.9 °F /  6.6 °C 40.8 °F /  4.9 °C 30.07in /  1018.2hPa West 1.2mph /  1.9km/h 4mph /  6.4km/h 89% 0.00in /  0mm 42 W/m2
08:39 44.1 °F /  6.7 °C 41 °F /  5 °C 30.07in /  1018.2hPa West 1.7mph /  2.7km/h 5mph /  8km/h 88.7% 0.00in /  0mm 51 W/m2
08:44 44.2 °F /  6.8 °C 41 °F /  5 °C 30.07in /  1018.2hPa WSW 3.3mph /  5.3km/h 6mph /  9.7km/h 88.3% 0.00in /  0mm 65 W/m2
08:49 44.2 °F /  6.8 °C 40.9 °F /  4.9 °C 30.08in /  1018.5hPa WSW 2.9mph /  4.7km/h 6mph /  9.7km/h 88% 0.00in /  0mm 79 W/m2
08:54 44.1 °F /  6.7 °C 40.8 °F /  4.9 °C 30.08in /  1018.5hPa WSW 3mph /  4.8km/h 7mph /  11.3km/h 88% 0.00in /  0mm 97 W/m2
08:59 44.3 °F /  6.8 °C 41 °F /  5 °C 30.08in /  1018.5hPa West 2.7mph /  4.3km/h 6mph /  9.7km/h 88% 0.00in /  0mm 113 W/m2
09:04 44.4 °F /  6.9 °C 41.2 °F /  5.1 °C 30.08in /  1018.5hPa West 3.6mph /  5.8km/h 7mph /  11.3km/h 88% 0.00in /  0mm 130 W/m2
09:09 44.6 °F /  7 °C 41.2 °F /  5.1 °C 30.08in /  1018.5hPa West 2.5mph /  4km/h 6mph /  9.7km/h 88% 0.00in /  0mm 149 W/m2
09:14 44.8 °F /  7.1 °C 41.3 °F /  5.2 °C 30.08in /  1018.5hPa West 1.7mph /  2.7km/h 6mph /  9.7km/h 87.6% 0.00in /  0mm 162 W/m2
09:19 45.1 °F /  7.3 °C 41.5 °F /  5.3 °C 30.08in /  1018.5hPa West 2mph /  3.2km/h 5mph /  8km/h 87% 0.00in /  0mm 179 W/m2
09:24 45.3 °F /  7.4 °C 41.6 °F /  5.3 °C 30.09in /  1018.8hPa West 2.7mph /  4.3km/h 5mph /  8km/h 86.6% 0.00in /  0mm 195 W/m2
09:29 45.5 °F /  7.5 °C 41.5 °F /  5.3 °C 30.09in /  1018.8hPa West 3mph /  4.8km/h 6mph /  9.7km/h 86% 0.00in /  0mm 213 W/m2
09:34 45.8 °F /  7.7 °C 41.5 °F /  5.3 °C 30.09in /  1018.8hPa West 3mph /  4.8km/h 6mph /  9.7km/h 85.3% 0.00in /  0mm 229 W/m2
09:39 46.1 °F /  7.8 °C 41.8 °F /  5.4 °C 30.09in /  1018.8hPa West 2.7mph /  4.3km/h 6mph /  9.7km/h 85% 0.00in /  0mm 244 W/m2
09:44 46.7 °F /  8.2 °C 42.2 °F /  5.7 °C 30.09in /  1018.8hPa West 0.9mph /  1.4km/h 5mph /  8km/h 84.2% 0.00in /  0mm 258 W/m2
09:49 47 °F /  8.3 °C 42.3 °F /  5.7 °C 30.09in /  1018.8hPa West 3mph /  4.8km/h 5mph /  8km/h 83.4% 0.00in /  0mm 271 W/m2
09:54 47.1 °F /  8.4 °C 42.1 °F /  5.6 °C 30.09in /  1018.8hPa West 1.3mph /  2.1km/h 4mph /  6.4km/h 82.6% 0.00in /  0mm 285 W/m2
09:59 47.7 °F /  8.7 °C 42.6 °F /  5.9 °C 30.09in /  1018.8hPa West 1.8mph /  2.9km/h 5mph /  8km/h 82.4% 0.00in /  0mm 301 W/m2
10:04 48 °F /  8.9 °C 42.5 °F /  5.8 °C 30.09in /  1018.8hPa West 1.4mph /  2.3km/h 4mph /  6.4km/h 81.3% 0.00in /  0mm 315 W/m2
10:09 48.3 °F /  9.1 °C 42.7 °F /  5.9 °C 30.09in /  1018.8hPa West 2mph /  3.2km/h 4mph /  6.4km/h 81% 0.00in /  0mm 329 W/m2
10:14 48.7 °F /  9.3 °C 43.1 °F /  6.2 °C 30.09in /  1018.8hPa West 1.3mph /  2.1km/h 4mph /  6.4km/h 81% 0.00in /  0mm 343 W/m2
10:19 49.4 °F /  9.7 °C 43.6 °F /  6.4 °C 30.09in /  1018.8hPa West 1.8mph /  2.9km/h 5mph /  8km/h 80.4% 0.00in /  0mm 353 W/m2
10:24 49.7 °F /  9.8 °C 43.3 °F /  6.3 °C 30.09in /  1018.8hPa West 2.4mph /  3.9km/h 6mph /  9.7km/h 78.7% 0.00in /  0mm 366 W/m2
10:29 49.6 °F /  9.8 °C 43 °F /  6.1 °C 30.09in /  1018.8hPa West 1.8mph /  2.9km/h 7mph /  11.3km/h 78% 0.00in /  0mm 380 W/m2
10:34 50.1 °F /  10.1 °C 43.1 °F /  6.2 °C 30.09in /  1018.8hPa WNW 3.1mph /  5km/h 8mph /  12.9km/h 76.9% 0.00in /  0mm 390 W/m2
10:39 51.2 °F /  10.7 °C 43.7 °F /  6.5 °C 30.09in /  1018.8hPa NW 1.4mph /  2.3km/h 5mph /  8km/h 75.5% 0.00in /  0mm 404 W/m2
10:44 51.7 °F /  10.9 °C 43 °F /  6.1 °C 30.10in /  1019.2hPa NNW 2.9mph /  4.7km/h 5mph /  8km/h 72.2% 0.00in /  0mm 418 W/m2
10:49 51.3 °F /  10.7 °C 42.6 °F /  5.9 °C 30.10in /  1019.2hPa North 3.1mph /  5km/h 7mph /  11.3km/h 72.1% 0.00in /  0mm 431 W/m2
10:54 50.9 °F /  10.5 °C 41.8 °F /  5.4 °C 30.10in /  1019.2hPa NNW 2.2mph /  3.5km/h 7mph /  11.3km/h 70.8% 0.00in /  0mm 439 W/m2
10:59 51.3 °F /  10.7 °C 41.9 °F /  5.5 °C 30.10in /  1019.2hPa NW 3.5mph /  5.6km/h 9mph /  14.5km/h 70% 0.00in /  0mm 450 W/m2
11:04 51.7 °F /  10.9 °C 42.2 °F /  5.7 °C 30.10in /  1019.2hPa NW 1.7mph /  2.7km/h 5mph /  8km/h 70% 0.00in /  0mm 459 W/m2
11:09 51.6 °F /  10.9 °C 42 °F /  5.6 °C 30.10in /  1019.2hPa NW 4.6mph /  7.4km/h 9mph /  14.5km/h 69.6% 0.00in /  0mm 471 W/m2
11:14 51.6 °F /  10.9 °C 41.8 °F /  5.4 °C 30.11in /  1019.5hPa NNW 3.5mph /  5.6km/h 9mph /  14.5km/h 69.2% 0.00in /  0mm 476 W/m2
11:19 51.6 °F /  10.9 °C 41.8 °F /  5.4 °C 30.11in /  1019.5hPa NW 4.3mph /  6.9km/h 8mph /  12.9km/h 69.5% 0.00in /  0mm 483 W/m2
11:24 51.6 °F /  10.9 °C 42.1 °F /  5.6 °C 30.11in /  1019.5hPa WNW 4.9mph /  7.9km/h 9mph /  14.5km/h 69.9% 0.00in /  0mm 492 W/m2
11:29 51.9 °F /  11.1 °C 42 °F /  5.6 °C 30.11in /  1019.5hPa WNW 4.4mph /  7.1km/h 9mph /  14.5km/h 69% 0.00in /  0mm 496 W/m2
11:34 52.3 °F /  11.3 °C 41.9 °F /  5.5 °C 30.11in /  1019.5hPa NNW 4.5mph /  7.2km/h 8mph /  12.9km/h 67.7% 0.00in /  0mm 506 W/m2
11:39 52.4 °F /  11.3 °C 42.2 °F /  5.7 °C 30.11in /  1019.5hPa WNW 5.1mph /  8.2km/h 9mph /  14.5km/h 67.9% 0.00in /  0mm 513 W/m2
11:44 52.4 °F /  11.3 °C 42.1 °F /  5.6 °C 30.11in /  1019.5hPa WNW 5.3mph /  8.5km/h 9mph /  14.5km/h 68% 0.00in /  0mm 520 W/m2
11:49 52.5 °F /  11.4 °C 42.3 °F /  5.7 °C 30.12in /  1019.9hPa NW 4.4mph /  7.1km/h 8mph /  12.9km/h 68% 0.00in /  0mm 536 W/m2
11:54 52.9 °F /  11.6 °C 42.5 °F /  5.8 °C 30.12in /  1019.9hPa WNW 4.4mph /  7.1km/h 8mph /  12.9km/h 67.8% 0.00in /  0mm 547 W/m2
11:59 53 °F /  11.7 °C 42.1 °F /  5.6 °C 30.12in /  1019.9hPa West 3.8mph /  6.1km/h 8mph /  12.9km/h 66.3% 0.00in /  0mm 543 W/m2
12:04 53.5 °F /  11.9 °C 42 °F /  5.6 °C 30.11in /  1019.5hPa NW 4mph /  6.4km/h 8mph /  12.9km/h 65% 0.00in /  0mm 547 W/m2
12:09 53.9 °F /  12.2 °C 43.7 °F /  6.5 °C 30.12in /  1019.9hPa NW 4.3mph /  6.9km/h 9mph /  14.5km/h 68.2% 0.00in /  0mm 543 W/m2
12:14 53.5 °F /  11.9 °C 43.7 °F /  6.5 °C 30.12in /  1019.9hPa WNW 4mph /  6.4km/h 9mph /  14.5km/h 69.3% 0.00in /  0mm 552 W/m2
12:19 54 °F /  12.2 °C 43.7 °F /  6.5 °C 30.12in /  1019.9hPa West 7.9mph /  12.7km/h 13mph /  20.9km/h 67.9% 0.00in /  0mm 564 W/m2
12:24 53.9 °F /  12.2 °C 43.7 °F /  6.5 °C 30.12in /  1019.9hPa NW 4.6mph /  7.4km/h 13mph /  20.9km/h 68.2% 0.00in /  0mm 596 W/m2
12:29 54.1 °F /  12.3 °C 43.3 °F /  6.3 °C 30.12in /  1019.9hPa WNW 5.5mph /  8.9km/h 10mph /  16.1km/h 67% 0.00in /  0mm 606 W/m2
12:34 54.3 °F /  12.4 °C 43.4 °F /  6.3 °C 30.12in /  1019.9hPa NNW 5.7mph /  9.2km/h 9mph /  14.5km/h 66.5% 0.00in /  0mm 606 W/m2
12:39 54.3 °F /  12.4 °C 43.1 °F /  6.2 °C 30.12in /  1019.9hPa North 4.5mph /  7.2km/h 9mph /  14.5km/h 65.8% 0.00in /  0mm 640 W/m2
12:44 54.8 °F /  12.7 °C 42.9 °F /  6.1 °C 30.11in /  1019.5hPa NNW 4mph /  6.4km/h 9mph /  14.5km/h 64% 0.00in /  0mm 643 W/m2
12:49 54.8 °F /  12.7 °C 42.6 °F /  5.9 °C 30.12in /  1019.9hPa NNW 5.2mph /  8.4km/h 12mph /  19.3km/h 63.4% 0.00in /  0mm 701 W/m2
12:54 54.8 °F /  12.7 °C 41.6 °F /  5.3 °C 30.12in /  1019.9hPa NNW 3.2mph /  5.1km/h 12mph /  19.3km/h 61% 0.00in /  0mm 656 W/m2
12:59 55.3 °F /  12.9 °C 42.4 °F /  5.8 °C 30.12in /  1019.9hPa NW 4.9mph /  7.9km/h 11mph /  17.7km/h 61.6% 0.00in /  0mm 668 W/m2
13:04 55.2 °F /  12.9 °C 42 °F /  5.6 °C 30.12in /  1019.9hPa WNW 3.3mph /  5.3km/h 9mph /  14.5km/h 61% 0.00in /  0mm 693 W/m2
13:09 55.5 °F /  13.1 °C 42.3 °F /  5.7 °C 30.12in /  1019.9hPa NW 6.7mph /  10.8km/h 13mph /  20.9km/h 61% 0.00in /  0mm 691 W/m2
13:14 55.7 °F /  13.2 °C 42.8 °F /  6 °C 30.12in /  1019.9hPa NNW 4.3mph /  6.9km/h 10mph /  16.1km/h 61.8% 0.00in /  0mm 696 W/m2
13:19 55.7 °F /  13.2 °C 42.4 °F /  5.8 °C 30.12in /  1019.9hPa NW 6mph /  9.7km/h 14mph /  22.5km/h 60.8% 0.00in /  0mm 722 W/m2
13:24 55.4 °F /  13 °C 42.3 °F /  5.7 °C 30.12in /  1019.9hPa NW 5.4mph /  8.7km/h 12mph /  19.3km/h 61.2% 0.00in /  0mm 740 W/m2
13:29 55.7 °F /  13.2 °C 42.6 °F /  5.9 °C 30.12in /  1019.9hPa NW 7.2mph /  11.6km/h 14mph /  22.5km/h 61.4% 0.00in /  0mm 744 W/m2
13:34 55.5 °F /  13.1 °C 42.4 °F /  5.8 °C 30.12in /  1019.9hPa NW 4.9mph /  7.9km/h 11mph /  17.7km/h 61.2% 0.00in /  0mm 722 W/m2
13:39 55.1 °F /  12.8 °C 42.4 °F /  5.8 °C 30.12in /  1019.9hPa North 6.5mph /  10.5km/h 12mph /  19.3km/h 62.3% 0.00in /  0mm 202 W/m2
13:44 54.6 °F /  12.6 °C 42.5 °F /  5.8 °C 30.12in /  1019.9hPa North 7.9mph /  12.7km/h 15mph /  24.1km/h 63.6% 0.00in /  0mm 190 W/m2
13:49 54.2 °F /  12.3 °C 42.5 °F /  5.8 °C 30.12in /  1019.9hPa NW 6.6mph /  10.6km/h 11mph /  17.7km/h 64.6% 0.00in /  0mm 165 W/m2
13:54 54.1 °F /  12.3 °C 42.7 °F /  5.9 °C 30.12in /  1019.9hPa NNW 4.9mph /  7.9km/h 10mph /  16.1km/h 65.4% 0.00in /  0mm 577 W/m2
13:59 55.1 °F /  12.8 °C 43.7 °F /  6.5 °C 30.12in /  1019.9hPa NNW 4.9mph /  7.9km/h 10mph /  16.1km/h 65.2% 0.00in /  0mm 563 W/m2
14:04 55.8 °F /  13.2 °C 43.7 °F /  6.5 °C 30.12in /  1019.9hPa NW 3.2mph /  5.1km/h 10mph /  16.1km/h 63.9% 0.00in /  0mm 564 W/m2
14:09 56.7 °F /  13.7 °C 43.9 °F /  6.6 °C 30.12in /  1019.9hPa WNW 5.2mph /  8.4km/h 10mph /  16.1km/h 62.2% 0.00in /  0mm 657 W/m2
14:14 57 °F /  13.9 °C 43.8 °F /  6.6 °C 30.12in /  1019.9hPa NW 3.6mph /  5.8km/h 10mph /  16.1km/h 61.2% 0.00in /  0mm 701 W/m2
14:19 56.6 °F /  13.7 °C 43.2 °F /  6.2 °C 30.12in /  1019.9hPa NNW 7mph /  11.3km/h 14mph /  22.5km/h 60.8% 0.00in /  0mm 271 W/m2
14:24 55.7 °F /  13.2 °C 43.1 °F /  6.2 °C 30.12in /  1019.9hPa NW 5mph /  8km/h 14mph /  22.5km/h 62.3% 0.00in /  0mm 250 W/m2
14:29 55.9 °F /  13.3 °C 43.7 °F /  6.5 °C 30.12in /  1019.9hPa NNW 4.3mph /  6.9km/h 8mph /  12.9km/h 63.4% 0.00in /  0mm 728 W/m2
14:34 56.1 °F /  13.4 °C 43.6 °F /  6.4 °C 30.12in /  1019.9hPa NW 5.3mph /  8.5km/h 9mph /  14.5km/h 62.9% 0.00in /  0mm 682 W/m2
14:39 56 °F /  13.3 °C 43.8 °F /  6.6 °C 30.12in /  1019.9hPa NW 4.9mph /  7.9km/h 10mph /  16.1km/h 63.5% 0.00in /  0mm 719 W/m2
14:44 55.8 °F /  13.2 °C 43.6 °F /  6.4 °C 30.12in /  1019.9hPa NW 4.8mph /  7.7km/h 12mph /  19.3km/h 63.8% 0.00in /  0mm 591 W/m2
14:49 55.8 °F /  13.2 °C 43.3 °F /  6.3 °C 30.12in /  1019.9hPa NNW 4.7mph /  7.6km/h 12mph /  19.3km/h 62.9% 0.00in /  0mm 545 W/m2
14:54 55.1 °F /  12.8 °C 43.1 °F /  6.2 °C 30.12in /  1019.9hPa WNW 4.3mph /  6.9km/h 9mph /  14.5km/h 63.7% 0.00in /  0mm 664 W/m2
14:59 55.7 °F /  13.2 °C 43.4 °F /  6.3 °C 30.13in /  1020.2hPa WNW 5.2mph /  8.4km/h 10mph /  16.1km/h 63.3% 0.00in /  0mm 677 W/m2
15:04 56.4 °F /  13.6 °C 43.7 °F /  6.5 °C 30.13in /  1020.2hPa WNW 5.9mph /  9.5km/h 12mph /  19.3km/h 62.4% 0.00in /  0mm 654 W/m2
15:09 56.7 °F /  13.7 °C 43.8 °F /  6.6 °C 30.13in /  1020.2hPa WNW 6.6mph /  10.6km/h 12mph /  19.3km/h 61.8% 0.00in /  0mm 664 W/m2
15:14 56.8 °F /  13.8 °C 42.7 °F /  5.9 °C 30.12in /  1019.9hPa WNW 4.3mph /  6.9km/h 12mph /  19.3km/h 59.3% 0.00in /  0mm 664 W/m2
15:19 57.8 °F /  14.3 °C 44 °F /  6.7 °C 30.12in /  1019.9hPa NW 4.6mph /  7.4km/h 9mph /  14.5km/h 60% 0.00in /  0mm 591 W/m2
15:24 57.2 °F /  14 °C 43.2 °F /  6.2 °C 30.12in /  1019.9hPa NNW 6.1mph /  9.8km/h 11mph /  17.7km/h 59.5% 0.00in /  0mm 216 W/m2
15:29 56.2 °F /  13.4 °C 42.8 °F /  6 °C 30.13in /  1020.2hPa NNW 5.4mph /  8.7km/h 10mph /  16.1km/h 60.7% 0.00in /  0mm 155 W/m2
15:34 55.6 °F /  13.1 °C 43 °F /  6.1 °C 30.13in /  1020.2hPa North 4.5mph /  7.2km/h 9mph /  14.5km/h 62.4% 0.00in /  0mm 134 W/m2
15:39 55.3 °F /  12.9 °C 43.2 °F /  6.2 °C 30.13in /  1020.2hPa NNW 4.8mph /  7.7km/h 10mph /  16.1km/h 63.5% 0.00in /  0mm 123 W/m2
15:44 55.3 °F /  12.9 °C 43.1 °F /  6.2 °C 30.12in /  1019.9hPa NW 2.9mph /  4.7km/h 7mph /  11.3km/h 63.6% 0.00in /  0mm 432 W/m2
15:49 56.1 °F /  13.4 °C 42.8 °F /  6 °C 30.12in /  1019.9hPa WNW 3.6mph /  5.8km/h 8mph /  12.9km/h 61% 0.00in /  0mm 431 W/m2
15:54 56.5 °F /  13.6 °C 42.4 °F /  5.8 °C 30.12in /  1019.9hPa NW 4.3mph /  6.9km/h 9mph /  14.5km/h 59.2% 0.00in /  0mm 464 W/m2
15:59 56.6 °F /  13.7 °C 42.1 °F /  5.6 °C 30.12in /  1019.9hPa NNW 7.6mph /  12.2km/h 12mph /  19.3km/h 58.4% 0.00in /  0mm 464 W/m2
16:04 55.7 °F /  13.2 °C 41.9 °F /  5.5 °C 30.13in /  1020.2hPa NW 5.1mph /  8.2km/h 10mph /  16.1km/h 59.7% 0.00in /  0mm 167 W/m2
16:09 55.3 °F /  12.9 °C 42.5 °F /  5.8 °C 30.13in /  1020.2hPa NW 4.7mph /  7.6km/h 11mph /  17.7km/h 61.8% 0.00in /  0mm 134 W/m2
16:14 55.1 °F /  12.8 °C 42.6 °F /  5.9 °C 30.14in /  1020.5hPa NW 4mph /  6.4km/h 8mph /  12.9km/h 62.7% 0.00in /  0mm 165 W/m2
16:19 55.1 °F /  12.8 °C 43.4 °F /  6.3 °C 30.14in /  1020.5hPa NW 2.9mph /  4.7km/h 6mph /  9.7km/h 64.5% 0.00in /  0mm 137 W/m2
16:24 55.2 °F /  12.9 °C 43.8 °F /  6.6 °C 30.14in /  1020.5hPa NW 3.5mph /  5.6km/h 7mph /  11.3km/h 65.3% 0.00in /  0mm 137 W/m2
16:29 55 °F /  12.8 °C 43.8 °F /  6.6 °C 30.14in /  1020.5hPa NNW 2.2mph /  3.5km/h 7mph /  11.3km/h 65.9% 0.00in /  0mm 104 W/m2
16:34 54.9 °F /  12.7 °C 43.9 °F /  6.6 °C 30.14in /  1020.5hPa NW 2.5mph /  4km/h 6mph /  9.7km/h 66.7% 0.00in /  0mm 81 W/m2
16:39 54.7 °F /  12.6 °C 43.9 °F /  6.6 °C 30.14in /  1020.5hPa NW 1.6mph /  2.6km/h 6mph /  9.7km/h 67.1% 0.00in /  0mm 302 W/m2
16:44 55 °F /  12.8 °C 44.3 °F /  6.8 °C 30.14in /  1020.5hPa NW 1.9mph /  3.1km/h 7mph /  11.3km/h 67.1% 0.00in /  0mm 287 W/m2
16:49 55.1 °F /  12.8 °C 43.1 °F /  6.2 °C 30.14in /  1020.5hPa NW 4.2mph /  6.8km/h 9mph /  14.5km/h 63.8% 0.00in /  0mm 105 W/m2
16:54 54.9 °F /  12.7 °C 43 °F /  6.1 °C 30.14in /  1020.5hPa NW 2.7mph /  4.3km/h 7mph /  11.3km/h 64% 0.00in /  0mm 113 W/m2
16:59 54.9 °F /  12.7 °C 43.2 °F /  6.2 °C 30.14in /  1020.5hPa NW 1.3mph /  2.1km/h 7mph /  11.3km/h 64.7% 0.00in /  0mm 77 W/m2
17:04 55 °F /  12.8 °C 43.7 °F /  6.5 °C 30.14in /  1020.5hPa NW 1.7mph /  2.7km/h 4mph /  6.4km/h 65.5% 0.00in /  0mm 213 W/m2
17:09 55 °F /  12.8 °C 43.7 °F /  6.5 °C 30.14in /  1020.5hPa WNW 3.7mph /  6km/h 8mph /  12.9km/h 65.4% 0.00in /  0mm 72 W/m2
17:14 54.8 °F /  12.7 °C 43.6 °F /  6.4 °C 30.14in /  1020.5hPa NW 2.3mph /  3.7km/h 7mph /  11.3km/h 66% 0.00in /  0mm 63 W/m2
17:19 54.6 °F /  12.6 °C 43.7 °F /  6.5 °C 30.14in /  1020.5hPa NW 0.5mph /  0.8km/h 3mph /  4.8km/h 66.8% 0.00in /  0mm 174 W/m2
17:24 55 °F /  12.8 °C 44.2 °F /  6.8 °C 30.14in /  1020.5hPa NW 0.5mph /  0.8km/h 4mph /  6.4km/h 67.1% 0.00in /  0mm 156 W/m2
17:29 55.4 °F /  13 °C 44.6 °F /  7 °C 30.14in /  1020.5hPa NW 0.2mph /  0.3km/h 3mph /  4.8km/h 66.9% 0.00in /  0mm 155 W/m2
17:34 55.9 °F /  13.3 °C 44.9 °F /  7.2 °C 30.14in /  1020.5hPa NW 0.4mph /  0.6km/h 3mph /  4.8km/h 66.5% 0.00in /  0mm 141 W/m2
17:39 56.1 °F /  13.4 °C 45 °F /  7.2 °C 30.14in /  1020.5hPa NW 0.4mph /  0.6km/h 3mph /  4.8km/h 66.2% 0.00in /  0mm 104 W/m2
17:44 55.9 °F /  13.3 °C 44.7 °F /  7.1 °C 30.14in /  1020.5hPa NW 1mph /  1.6km/h 3mph /  4.8km/h 66% 0.00in /  0mm 104 W/m2
17:49 55.6 °F /  13.1 °C 44.6 °F /  7 °C 30.15in /  1020.9hPa NW 0.1mph /  0.2km/h 3mph /  4.8km/h 66.6% 0.00in /  0mm 74 W/m2
17:54 55.4 °F /  13 °C 44.8 °F /  7.1 °C 30.15in /  1020.9hPa NW 0.8mph /  1.3km/h 4mph /  6.4km/h 67.6% 0.00in /  0mm 84 W/m2
17:59 55.2 °F /  12.9 °C 44.6 °F /  7 °C 30.15in /  1020.9hPa NW 1.2mph /  1.9km/h 4mph /  6.4km/h 67.5% 0.00in /  0mm 79 W/m2
18:04 55.1 °F /  12.8 °C 44.7 °F /  7.1 °C 30.15in /  1020.9hPa NW 0.7mph /  1.1km/h 3mph /  4.8km/h 68% 0.00in /  0mm 60 W/m2
18:09 54.8 °F /  12.7 °C 44.4 °F /  6.9 °C 30.15in /  1020.9hPa NW 1.2mph /  1.9km/h 4mph /  6.4km/h 68% 0.00in /  0mm 30 W/m2
18:14 54.3 °F /  12.4 °C 44.1 °F /  6.7 °C 30.15in /  1020.9hPa NW 0.9mph /  1.4km/h 4mph /  6.4km/h 68.3% 0.00in /  0mm 26 W/m2
18:19 54 °F /  12.2 °C 44.2 °F /  6.8 °C 30.15in /  1020.9hPa NW 0.3mph /  0.5km/h 3mph /  4.8km/h 69.3% 0.00in /  0mm 16 W/m2
18:24 53.8 °F /  12.1 °C 44.4 °F /  6.9 °C 30.16in /  1021.2hPa Calm   1mph /  1.6km/h 70.6% 0.00in /  0mm 12 W/m2
18:29 53.5 °F /  11.9 °C 44.3 °F /  6.8 °C 30.16in /  1021.2hPa NW 0.4mph /  0.6km/h 2mph /  3.2km/h 71% 0.00in /  0mm 11 W/m2
18:34 53.3 °F /  11.8 °C 44.2 °F /  6.8 °C 30.16in /  1021.2hPa NW 0.3mph /  0.5km/h 2mph /  3.2km/h 71.4% 0.00in /  0mm 9 W/m2
18:39 52.9 °F /  11.6 °C 44 °F /  6.7 °C 30.16in /  1021.2hPa NW 1mph /  1.6km/h 3mph /  4.8km/h 72% 0.00in /  0mm 7 W/m2
18:44 52.4 °F /  11.3 °C 43.5 °F /  6.4 °C 30.16in /  1021.2hPa NW 0.7mph /  1.1km/h 3mph /  4.8km/h 72% 0.00in /  0mm 5 W/m2
18:49 52 °F /  11.1 °C 43.3 °F /  6.3 °C 30.16in /  1021.2hPa NW 0.1mph /  0.2km/h 2mph /  3.2km/h 72.5% 0.00in /  0mm 0 W/m2
18:54 51.7 °F /  10.9 °C 43.3 °F /  6.3 °C 30.16in /  1021.2hPa Calm     73% 0.00in /  0mm 0 W/m2
18:59 50.8 °F /  10.4 °C 42.8 °F /  6 °C 30.16in /  1021.2hPa NW 1.1mph /  1.8km/h 3mph /  4.8km/h 73.8% 0.00in /  0mm 0 W/m2
19:01 50.4 °F /  10.2 °C 42.4 °F /  5.8 °C 30.16in /  1021.2hPa NW 0.5mph /  0.8km/h 3mph /  4.8km/h 74% 0.00in /  0mm 0 W/m2
19:09 49.8 °F /  9.9 °C 42.3 °F /  5.7 °C 30.16in /  1021.2hPa Calm     74.9% 0.00in /  0mm 0 W/m2
19:14 49.7 °F /  9.8 °C 42.2 °F /  5.7 °C 30.16in /  1021.2hPa Calm     75% 0.00in /  0mm 0 W/m2
19:19 49.6 °F /  9.8 °C 42 °F /  5.6 °C 30.16in /  1021.2hPa Calm     75% 0.00in /  0mm 0 W/m2
19:24 49.4 °F /  9.7 °C 41.8 °F /  5.4 °C 30.17in /  1021.6hPa Calm     75% 0.00in /  0mm 0 W/m2
19:29 48.7 °F /  9.3 °C 41.4 °F /  5.2 °C 30.17in /  1021.6hPa NW 0.1mph /  0.2km/h 1mph /  1.6km/h 75.6% 0.00in /  0mm 0 W/m2
19:34 48.2 °F /  9 °C 41 °F /  5 °C 30.18in /  1021.9hPa NW 0.4mph /  0.6km/h 2mph /  3.2km/h 76% 0.00in /  0mm 0 W/m2
19:39 47.8 °F /  8.8 °C 40.6 °F /  4.8 °C 30.18in /  1021.9hPa NW 0.2mph /  0.3km/h 2mph /  3.2km/h 76% 0.00in /  0mm 0 W/m2
19:44 47.7 °F /  8.7 °C 40.8 °F /  4.9 °C 30.18in /  1021.9hPa Calm   1mph /  1.6km/h 76.9% 0.00in /  0mm 0 W/m2
19:49 47.5 °F /  8.6 °C 40.6 °F /  4.8 °C 30.18in /  1021.9hPa Calm     77% 0.00in /  0mm 0 W/m2
19:54 47.4 °F /  8.6 °C 40.9 °F /  4.9 °C 30.18in /  1021.9hPa NW 0.1mph /  0.2km/h 1mph /  1.6km/h 78% 0.00in /  0mm 0 W/m2
19:59 47.2 °F /  8.4 °C 40.8 °F /  4.9 °C 30.18in /  1021.9hPa Calm   1mph /  1.6km/h 78.3% 0.00in /  0mm 0 W/m2
20:04 47.1 °F /  8.4 °C 41 °F /  5 °C 30.18in /  1021.9hPa Calm     79.1% 0.00in /  0mm 0 W/m2
20:09 47 °F /  8.3 °C 41.3 °F /  5.2 °C 30.18in /  1021.9hPa Calm     80% 0.00in /  0mm 0 W/m2
20:14 46.9 °F /  8.3 °C 41.2 °F /  5.1 °C 30.19in /  1022.2hPa Calm     80% 0.00in /  0mm 0 W/m2
20:19 46.8 °F /  8.2 °C 41.2 °F /  5.1 °C 30.18in /  1021.9hPa Calm     80.7% 0.00in /  0mm 0 W/m2
20:24 46.8 °F /  8.2 °C 41.2 °F /  5.1 °C 30.19in /  1022.2hPa Calm     81% 0.00in /  0mm 0 W/m2
20:29 46.6 °F /  8.1 °C 41 °F /  5 °C 30.19in /  1022.2hPa Calm     81.1% 0.00in /  0mm 0 W/m2
20:34 46.3 °F /  7.9 °C 41.1 °F /  5.1 °C 30.19in /  1022.2hPa Calm     82% 0.00in /  0mm 0 W/m2
20:39 46.1 °F /  7.8 °C 40.9 °F /  4.9 °C 30.19in /  1022.2hPa Calm     82% 0.00in /  0mm 0 W/m2
20:44 45.6 °F /  7.6 °C 40.7 °F /  4.8 °C 30.19in /  1022.2hPa NW 0.1mph /  0.2km/h 1mph /  1.6km/h 82.9% 0.00in /  0mm 0 W/m2
20:49 45 °F /  7.2 °C 40.1 °F /  4.5 °C 30.19in /  1022.2hPa Calm     83.1% 0.00in /  0mm 0 W/m2
20:54 44.8 °F /  7.1 °C 40.3 °F /  4.6 °C 30.19in /  1022.2hPa Calm     84% 0.00in /  0mm 0 W/m2
20:59 44.8 °F /  7.1 °C 40.3 °F /  4.6 °C 30.19in /  1022.2hPa Calm     84% 0.00in /  0mm 0 W/m2
21:04 44.9 °F /  7.2 °C 40.6 °F /  4.8 °C 30.19in /  1022.2hPa Calm     85% 0.00in /  0mm 0 W/m2
21:09 45 °F /  7.2 °C 40.6 °F /  4.8 °C 30.19in /  1022.2hPa Calm     85% 0.00in /  0mm 0 W/m2
21:14 44.7 °F /  7.1 °C 40.5 °F /  4.7 °C 30.19in /  1022.2hPa Calm     85% 0.00in /  0mm 0 W/m2
21:19 44.6 °F /  7 °C 40.5 °F /  4.7 °C 30.19in /  1022.2hPa Calm     85% 0.00in /  0mm 0 W/m2
21:24 44.5 °F /  6.9 °C 40.5 °F /  4.7 °C 30.19in /  1022.2hPa Calm     85.5% 0.00in /  0mm 0 W/m2
21:29 44.4 °F /  6.9 °C 40.5 °F /  4.7 °C 30.19in /  1022.2hPa Calm     85.9% 0.00in /  0mm 0 W/m2
21:34 44.2 °F /  6.8 °C 40.3 °F /  4.6 °C 30.19in /  1022.2hPa Calm     86% 0.00in /  0mm 0 W/m2
21:39 44.2 °F /  6.8 °C 40.3 °F /  4.6 °C 30.19in /  1022.2hPa Calm     86% 0.00in /  0mm 0 W/m2
21:44 44.2 °F /  6.8 °C 40.2 °F /  4.6 °C 30.19in /  1022.2hPa Calm     86% 0.00in /  0mm 0 W/m2
21:49 44.1 °F /  6.7 °C 40.1 °F /  4.5 °C 30.19in /  1022.2hPa Calm     86% 0.00in /  0mm 0 W/m2
21:54 43.7 °F /  6.5 °C 39.7 °F /  4.3 °C 30.19in /  1022.2hPa Calm     86% 0.00in /  0mm 0 W/m2
21:59 43.7 °F /  6.5 °C 39.9 °F /  4.4 °C 30.19in /  1022.2hPa Calm     86.7% 0.00in /  0mm 0 W/m2
22:04 43.5 °F /  6.4 °C 39.9 °F /  4.4 °C 30.19in /  1022.2hPa Calm     87% 0.00in /  0mm 0 W/m2
22:09 43.4 °F /  6.3 °C 39.8 °F /  4.3 °C 30.19in /  1022.2hPa Calm     87% 0.00in /  0mm 0 W/m2
22:14 43.3 °F /  6.3 °C 39.7 °F /  4.3 °C 30.19in /  1022.2hPa Calm     87% 0.00in /  0mm 0 W/m2
22:19 43.3 °F /  6.3 °C 39.7 °F /  4.3 °C 30.19in /  1022.2hPa Calm     87% 0.00in /  0mm 0 W/m2
22:24 43.3 °F /  6.3 °C 39.7 °F /  4.3 °C 30.19in /  1022.2hPa Calm     87% 0.00in /  0mm 0 W/m2
22:29 43.2 °F /  6.2 °C 39.6 °F /  4.2 °C 30.19in /  1022.2hPa Calm     87% 0.00in /  0mm 0 W/m2
22:34 43 °F /  6.1 °C 39.7 °F /  4.3 °C 30.19in /  1022.2hPa Calm     88% 0.00in /  0mm 0 W/m2
22:39 42.8 °F /  6 °C 39.3 °F /  4.1 °C 30.19in /  1022.2hPa Calm     87.3% 0.00in /  0mm 0 W/m2
22:44 42.5 °F /  5.8 °C 39.3 °F /  4.1 °C 30.19in /  1022.2hPa Calm     87.8% 0.00in /  0mm 0 W/m2
22:49 42.3 °F /  5.7 °C 39 °F /  3.9 °C 30.19in /  1022.2hPa Calm     88% 0.00in /  0mm 0 W/m2
22:54 42.2 °F /  5.7 °C 38.9 °F /  3.8 °C 30.19in /  1022.2hPa Calm     88% 0.00in /  0mm 0 W/m2
22:59 42 °F /  5.6 °C 38.7 °F /  3.7 °C 30.19in /  1022.2hPa Calm     88% 0.00in /  0mm 0 W/m2
23:04 42 °F /  5.6 °C 38.7 °F /  3.7 °C 30.19in /  1022.2hPa Calm     88% 0.00in /  0mm 0 W/m2
23:09 41.9 °F /  5.5 °C 38.8 °F /  3.8 °C 30.19in /  1022.2hPa Calm     88.5% 0.00in /  0mm 0 W/m2
23:14 41.9 °F /  5.5 °C 38.8 °F /  3.8 °C 30.19in /  1022.2hPa Calm     88.7% 0.00in /  0mm 0 W/m2
23:19 41.9 °F /  5.5 °C 38.8 °F /  3.8 °C 30.19in /  1022.2hPa Calm     89% 0.00in /  0mm 0 W/m2
23:24 41.7 °F /  5.4 °C 38.7 °F /  3.7 °C 30.19in /  1022.2hPa Calm     89% 0.00in /  0mm 0 W/m2
23:29 41.6 °F /  5.3 °C 38.6 °F /  3.7 °C 30.19in /  1022.2hPa Calm     89% 0.00in /  0mm 0 W/m2
23:34 41.4 °F /  5.2 °C 38.4 °F /  3.6 °C 30.19in /  1022.2hPa Calm     89% 0.00in /  0mm 0 W/m2
23:39 41.4 °F /  5.2 °C 38.3 °F /  3.5 °C 30.19in /  1022.2hPa Calm     89% 0.00in /  0mm 0 W/m2
23:44 41.4 °F /  5.2 °C 38.3 °F /  3.5 °C 30.19in /  1022.2hPa Calm     89% 0.00in /  0mm 0 W/m2
23:49 41.4 °F /  5.2 °C 38.3 °F /  3.5 °C 30.19in /  1022.2hPa Calm     89% 0.00in /  0mm 0 W/m2
23:54 41.4 °F /  5.2 °C 38.3 °F /  3.5 °C 30.19in /  1022.2hPa Calm     89% 0.00in /  0mm 0 W/m2
23:59 41.3 °F /  5.2 °C 38.3 °F /  3.5 °C 30.19in /  1022.2hPa Calm     89.3% 0.00in /  0mm 0 W/m2
Bath Spa Weather
Compliments of Weather Underground - 2 mb